Terminal Aerodrome Forecast
Issued by NWS

Home | Current Version | Previous Version | Text Only | Print | Product List | Glossary On
Versions: 1 2 3 4 5 6 7 8 9 10 11 12 13 14 15 16 17 18 19 20
936
FTUS41 KCAR 232234 AAB
TAFFVE
TAF AMD
KFVE 232234Z 2323/2418 07008G19KT 3SM -FZRAPL OVC010
     FM240100 29008KT 3SM -FZRA OVC006
     FM240400 29012KT 3SM -SN OVC006
     FM241100 29007KT 3SM BR VCSH OVC003
     FM241600 31009KT 3SM BR VCSH BKN015
     FM241700 31010G18KT P6SM BKN015=

USA.gov is the U.S. government's official web portal to all federal, state and local government web resources and services.